sensor_id;sensor_type;location;lat;lon;timestamp;temperature;humidity
52656;SHT85;35474;51.032;6.998;2023-01-29T00:02:01;-2.58;87.11
52656;SHT85;35474;51.032;6.998;2023-01-29T00:04:30;-2.62;87.28
52656;SHT85;35474;51.032;6.998;2023-01-29T00:06:57;-2.71;87.29
52656;SHT85;35474;51.032;6.998;2023-01-29T00:09:24;-2.69;86.92
52656;SHT85;35474;51.032;6.998;2023-01-29T00:11:51;-2.78;87.01
52656;SHT85;35474;51.032;6.998;2023-01-29T00:14:18;-2.61;87.07
52656;SHT85;35474;51.032;6.998;2023-01-29T00:16:45;-2.72;87.34
52656;SHT85;35474;51.032;6.998;2023-01-29T00:19:11;-2.66;87.12
52656;SHT85;35474;51.032;6.998;2023-01-29T00:21:38;-2.68;87.05
52656;SHT85;35474;51.032;6.998;2023-01-29T00:24:05;-2.86;87.10
52656;SHT85;35474;51.032;6.998;2023-01-29T00:26:32;-2.86;87.06
52656;SHT85;35474;51.032;6.998;2023-01-29T00:28:58;-2.95;87.09
52656;SHT85;35474;51.032;6.998;2023-01-29T00:31:28;-2.88;87.32
52656;SHT85;35474;51.032;6.998;2023-01-29T00:33:55;-2.97;87.46
52656;SHT85;35474;51.032;6.998;2023-01-29T00:36:22;-2.89;87.24
52656;SHT85;35474;51.032;6.998;2023-01-29T00:38:54;-2.91;87.24
52656;SHT85;35474;51.032;6.998;2023-01-29T00:41:27;-2.91;87.39
52656;SHT85;35474;51.032;6.998;2023-01-29T00:44:14;-2.97;87.36
52656;SHT85;35474;51.032;6.998;2023-01-29T00:47:00;-3.00;87.56
52656;SHT85;35474;51.032;6.998;2023-01-29T00:49:27;-3.10;87.62
52656;SHT85;35474;51.032;6.998;2023-01-29T00:51:55;-2.97;87.63
52656;SHT85;35474;51.032;6.998;2023-01-29T00:54:43;-2.99;87.71
52656;SHT85;35474;51.032;6.998;2023-01-29T01:00:35;-3.19;87.62
52656;SHT85;35474;51.032;6.998;2023-01-29T01:03:01;-3.15;87.98
52656;SHT85;35474;51.032;6.998;2023-01-29T01:05:31;-3.16;87.75
52656;SHT85;35474;51.032;6.998;2023-01-29T01:07:58;-3.10;87.79
52656;SHT85;35474;51.032;6.998;2023-01-29T01:10:28;-3.19;87.73
52656;SHT85;35474;51.032;6.998;2023-01-29T01:12:58;-3.10;87.53
52656;SHT85;35474;51.032;6.998;2023-01-29T01:15:31;-3.10;87.52
52656;SHT85;35474;51.032;6.998;2023-01-29T01:18:00;-3.13;87.77
52656;SHT85;35474;51.032;6.998;2023-01-29T01:20:28;-3.09;87.98
52656;SHT85;35474;51.032;6.998;2023-01-29T01:22:56;-3.15;87.91
52656;SHT85;35474;51.032;6.998;2023-01-29T01:25:23;-3.19;87.68
52656;SHT85;35474;51.032;6.998;2023-01-29T01:27:55;-3.26;87.88
52656;SHT85;35474;51.032;6.998;2023-01-29T01:30:22;-3.34;87.89
52656;SHT85;35474;51.032;6.998;2023-01-29T01:32:50;-3.36;88.20
52656;SHT85;35474;51.032;6.998;2023-01-29T01:35:17;-3.36;88.28
52656;SHT85;35474;51.032;6.998;2023-01-29T01:37:43;-3.37;88.42
52656;SHT85;35474;51.032;6.998;2023-01-29T01:40:12;-3.37;88.26
52656;SHT85;35474;51.032;6.998;2023-01-29T01:42:46;-3.42;88.28
52656;SHT85;35474;51.032;6.998;2023-01-29T01:47:51;-3.48;88.33
52656;SHT85;35474;51.032;6.998;2023-01-29T01:50:28;-3.47;88.19
52656;SHT85;35474;51.032;6.998;2023-01-29T01:52:57;-3.51;88.23
52656;SHT85;35474;51.032;6.998;2023-01-29T01:55:28;-3.33;88.16
52656;SHT85;35474;51.032;6.998;2023-01-29T01:58:00;-3.44;88.28
52656;SHT85;35474;51.032;6.998;2023-01-29T02:00:31;-3.47;88.27
52656;SHT85;35474;51.032;6.998;2023-01-29T02:02:58;-3.48;88.27
52656;SHT85;35474;51.032;6.998;2023-01-29T02:05:45;-3.43;88.39
52656;SHT85;35474;51.032;6.998;2023-01-29T02:08:33;-3.48;88.26
52656;SHT85;35474;51.032;6.998;2023-01-29T02:11:26;-3.37;88.45
52656;SHT85;35474;51.032;6.998;2023-01-29T02:13:52;-3.46;88.35
52656;SHT85;35474;51.032;6.998;2023-01-29T02:16:20;-3.34;88.29
52656;SHT85;35474;51.032;6.998;2023-01-29T02:18:48;-3.53;88.02
52656;SHT85;35474;51.032;6.998;2023-01-29T02:21:25;-3.46;88.18
52656;SHT85;35474;51.032;6.998;2023-01-29T02:24:16;-3.51;87.82
52656;SHT85;35474;51.032;6.998;2023-01-29T02:35:10;-3.57;88.12
52656;SHT85;35474;51.032;6.998;2023-01-29T02:38:05;-3.58;88.41
52656;SHT85;35474;51.032;6.998;2023-01-29T02:40:54;-3.54;88.37
52656;SHT85;35474;51.032;6.998;2023-01-29T02:43:40;-3.47;88.26
52656;SHT85;35474;51.032;6.998;2023-01-29T02:49:09;-3.54;88.29
52656;SHT85;35474;51.032;6.998;2023-01-29T02:54:40;-3.58;88.37
52656;SHT85;35474;51.032;6.998;2023-01-29T02:57:18;-3.44;88.36
52656;SHT85;35474;51.032;6.998;2023-01-29T02:59:58;-3.61;88.32
52656;SHT85;35474;51.032;6.998;2023-01-29T03:02:29;-3.65;88.44
52656;SHT85;35474;51.032;6.998;2023-01-29T03:05:02;-3.63;88.30
52656;SHT85;35474;51.032;6.998;2023-01-29T03:07:34;-3.54;88.11
52656;SHT85;35474;51.032;6.998;2023-01-29T03:10:16;-3.51;88.11
52656;SHT85;35474;51.032;6.998;2023-01-29T03:12:45;-3.61;88.24
52656;SHT85;35474;51.032;6.998;2023-01-29T03:15:20;-3.58;87.98
52656;SHT85;35474;51.032;6.998;2023-01-29T03:17:57;-3.53;88.33
52656;SHT85;35474;51.032;6.998;2023-01-29T03:20:34;-3.53;88.15
52656;SHT85;35474;51.032;6.998;2023-01-29T03:23:06;-3.70;88.08
52656;SHT85;35474;51.032;6.998;2023-01-29T03:25:39;-3.67;88.06
52656;SHT85;35474;51.032;6.998;2023-01-29T03:28:27;-3.63;88.16
52656;SHT85;35474;51.032;6.998;2023-01-29T03:31:14;-3.67;88.08
52656;SHT85;35474;51.032;6.998;2023-01-29T03:34:17;-3.73;88.00
52656;SHT85;35474;51.032;6.998;2023-01-29T03:36:54;-3.82;87.98
52656;SHT85;35474;51.032;6.998;2023-01-29T03:39:26;-3.91;87.95
52656;SHT85;35474;51.032;6.998;2023-01-29T03:41:58;-3.88;87.98
52656;SHT85;35474;51.032;6.998;2023-01-29T03:50:06;-3.78;88.71
52656;SHT85;35474;51.032;6.998;2023-01-29T03:55:29;-4.06;88.52
52656;SHT85;35474;51.032;6.998;2023-01-29T03:58:29;-3.86;88.92
52656;SHT85;35474;51.032;6.998;2023-01-29T04:03:43;-3.95;88.63
52656;SHT85;35474;51.032;6.998;2023-01-29T04:06:16;-3.96;88.76
52656;SHT85;35474;51.032;6.998;2023-01-29T04:08:54;-3.92;88.67
52656;SHT85;35474;51.032;6.998;2023-01-29T04:11:25;-3.81;88.81
52656;SHT85;35474;51.032;6.998;2023-01-29T04:13:54;-3.84;88.66
52656;SHT85;35474;51.032;6.998;2023-01-29T04:16:24;-3.89;88.60
52656;SHT85;35474;51.032;6.998;2023-01-29T04:18:53;-3.77;88.42
52656;SHT85;35474;51.032;6.998;2023-01-29T04:21:20;-3.92;88.25
52656;SHT85;35474;51.032;6.998;2023-01-29T04:23:47;-3.89;88.46
52656;SHT85;35474;51.032;6.998;2023-01-29T04:37:30;-3.85;88.12
52656;SHT85;35474;51.032;6.998;2023-01-29T04:45:20;-3.77;88.24
52656;SHT85;35474;51.032;6.998;2023-01-29T04:48:04;-3.89;88.15
52656;SHT85;35474;51.032;6.998;2023-01-29T04:50:35;-3.78;88.33
52656;SHT85;35474;51.032;6.998;2023-01-29T04:53:50;-3.78;88.37
52656;SHT85;35474;51.032;6.998;2023-01-29T04:58:47;-3.74;88.38
52656;SHT85;35474;51.032;6.998;2023-01-29T05:01:18;-3.77;88.43
52656;SHT85;35474;51.032;6.998;2023-01-29T05:03:46;-3.91;88.44
52656;SHT85;35474;51.032;6.998;2023-01-29T05:06:17;-3.86;88.49
52656;SHT85;35474;51.032;6.998;2023-01-29T05:08:45;-3.81;88.53
52656;SHT85;35474;51.032;6.998;2023-01-29T05:11:13;-3.79;88.36
52656;SHT85;35474;51.032;6.998;2023-01-29T05:13:41;-3.86;88.57
52656;SHT85;35474;51.032;6.998;2023-01-29T05:16:15;-3.91;88.49
52656;SHT85;35474;51.032;6.998;2023-01-29T05:18:46;-3.92;88.76
52656;SHT85;35474;51.032;6.998;2023-01-29T05:21:13;-3.84;88.64
52656;SHT85;35474;51.032;6.998;2023-01-29T05:23:39;-3.88;88.84
52656;SHT85;35474;51.032;6.998;2023-01-29T05:26:18;-3.82;88.70
52656;SHT85;35474;51.032;6.998;2023-01-29T05:29:05;-3.88;88.67
52656;SHT85;35474;51.032;6.998;2023-01-29T05:31:31;-3.78;88.55
52656;SHT85;35474;51.032;6.998;2023-01-29T05:33:58;-3.78;88.43
52656;SHT85;35474;51.032;6.998;2023-01-29T05:36:24;-3.79;88.44
52656;SHT85;35474;51.032;6.998;2023-01-29T05:38:51;-3.73;88.09
52656;SHT85;35474;51.032;6.998;2023-01-29T05:41:18;-3.73;87.90
52656;SHT85;35474;51.032;6.998;2023-01-29T05:43:46;-3.75;87.87
52656;SHT85;35474;51.032;6.998;2023-01-29T05:46:12;-3.75;88.08
52656;SHT85;35474;51.032;6.998;2023-01-29T05:48:39;-4.02;88.12
52656;SHT85;35474;51.032;6.998;2023-01-29T05:51:05;-3.85;88.28
52656;SHT85;35474;51.032;6.998;2023-01-29T05:53:32;-3.98;88.37
52656;SHT85;35474;51.032;6.998;2023-01-29T05:56:02;-3.84;88.23
52656;SHT85;35474;51.032;6.998;2023-01-29T05:58:30;-4.02;88.46
52656;SHT85;35474;51.032;6.998;2023-01-29T06:00:57;-4.02;88.84
52656;SHT85;35474;51.032;6.998;2023-01-29T06:03:32;-3.98;88.84
52656;SHT85;35474;51.032;6.998;2023-01-29T06:06:00;-3.88;88.69
52656;SHT85;35474;51.032;6.998;2023-01-29T06:08:27;-3.81;88.54
52656;SHT85;35474;51.032;6.998;2023-01-29T06:10:53;-3.73;88.18
52656;SHT85;35474;51.032;6.998;2023-01-29T06:13:19;-3.74;88.01
52656;SHT85;35474;51.032;6.998;2023-01-29T06:15:48;-3.74;87.86
52656;SHT85;35474;51.032;6.998;2023-01-29T06:18:15;-3.75;87.68
52656;SHT85;35474;51.032;6.998;2023-01-29T06:20:41;-3.78;88.26
52656;SHT85;35474;51.032;6.998;2023-01-29T06:23:08;-3.82;88.15
52656;SHT85;35474;51.032;6.998;2023-01-29T06:25:34;-3.89;88.55
52656;SHT85;35474;51.032;6.998;2023-01-29T06:28:01;-3.88;88.46
52656;SHT85;35474;51.032;6.998;2023-01-29T06:30:27;-3.85;88.47
52656;SHT85;35474;51.032;6.998;2023-01-29T06:32:54;-3.86;88.62
52656;SHT85;35474;51.032;6.998;2023-01-29T06:35:24;-3.96;88.68
52656;SHT85;35474;51.032;6.998;2023-01-29T06:37:51;-3.91;88.80
52656;SHT85;35474;51.032;6.998;2023-01-29T06:40:17;-3.91;88.91
52656;SHT85;35474;51.032;6.998;2023-01-29T06:42:44;-3.78;89.07
52656;SHT85;35474;51.032;6.998;2023-01-29T06:45:11;-3.70;89.17
52656;SHT85;35474;51.032;6.998;2023-01-29T06:47:37;-3.70;89.07
52656;SHT85;35474;51.032;6.998;2023-01-29T06:50:04;-3.61;89.09
52656;SHT85;35474;51.032;6.998;2023-01-29T06:52:31;-3.61;88.91
52656;SHT85;35474;51.032;6.998;2023-01-29T06:54:57;-3.58;88.68
52656;SHT85;35474;51.032;6.998;2023-01-29T06:57:27;-3.57;88.58
52656;SHT85;35474;51.032;6.998;2023-01-29T06:59:54;-3.55;88.51
52656;SHT85;35474;51.032;6.998;2023-01-29T07:02:20;-3.60;88.52
52656;SHT85;35474;51.032;6.998;2023-01-29T07:04:47;-3.55;88.48
52656;SHT85;35474;51.032;6.998;2023-01-29T07:07:13;-3.60;88.54
52656;SHT85;35474;51.032;6.998;2023-01-29T07:09:40;-3.64;88.72
52656;SHT85;35474;51.032;6.998;2023-01-29T07:12:08;-3.48;88.67
52656;SHT85;35474;51.032;6.998;2023-01-29T07:14:36;-3.32;88.76
52656;SHT85;35474;51.032;6.998;2023-01-29T07:17:03;-3.27;88.57
52656;SHT85;35474;51.032;6.998;2023-01-29T07:19:30;-3.16;87.98
52656;SHT85;35474;51.032;6.998;2023-01-29T07:21:56;-3.19;87.74
52656;SHT85;35474;51.032;6.998;2023-01-29T07:24:23;-3.09;87.38
52656;SHT85;35474;51.032;6.998;2023-01-29T07:26:50;-3.06;87.19
52656;SHT85;35474;51.032;6.998;2023-01-29T07:32:34;-3.00;87.31
52656;SHT85;35474;51.032;6.998;2023-01-29T07:35:00;-2.97;87.17
52656;SHT85;35474;51.032;6.998;2023-01-29T07:37:27;-2.79;86.85
52656;SHT85;35474;51.032;6.998;2023-01-29T07:39:53;-2.88;86.69
52656;SHT85;35474;51.032;6.998;2023-01-29T07:42:20;-2.82;86.78
52656;SHT85;35474;51.032;6.998;2023-01-29T07:44:46;-2.75;86.74
52656;SHT85;35474;51.032;6.998;2023-01-29T07:47:13;-2.54;86.72
52656;SHT85;35474;51.032;6.998;2023-01-29T07:49:42;-2.33;85.84
52656;SHT85;35474;51.032;6.998;2023-01-29T07:52:08;-2.32;85.71
52656;SHT85;35474;51.032;6.998;2023-01-29T07:54:35;-2.38;85.60
52656;SHT85;35474;51.032;6.998;2023-01-29T07:57:01;-2.45;86.08
52656;SHT85;35474;51.032;6.998;2023-01-29T07:59:28;-2.37;86.05
52656;SHT85;35474;51.032;6.998;2023-01-29T08:01:55;-2.41;85.97
52656;SHT85;35474;51.032;6.998;2023-01-29T08:04:21;-2.43;86.02
52656;SHT85;35474;51.032;6.998;2023-01-29T08:06:48;-2.23;86.15
52656;SHT85;35474;51.032;6.998;2023-01-29T08:09:14;-2.17;85.47
52656;SHT85;35474;51.032;6.998;2023-01-29T08:11:41;-2.36;85.66
52656;SHT85;35474;51.032;6.998;2023-01-29T08:14:07;-2.10;85.51
52656;SHT85;35474;51.032;6.998;2023-01-29T08:16:34;-2.33;85.56
52656;SHT85;35474;51.032;6.998;2023-01-29T08:19:01;-2.36;86.02
52656;SHT85;35474;51.032;6.998;2023-01-29T08:21:28;-2.38;86.17
52656;SHT85;35474;51.032;6.998;2023-01-29T08:23:54;-2.22;86.14
52656;SHT85;35474;51.032;6.998;2023-01-29T08:26:20;-2.26;85.97
52656;SHT85;35474;51.032;6.998;2023-01-29T08:28:47;-2.24;85.91
52656;SHT85;35474;51.032;6.998;2023-01-29T08:31:15;-2.26;85.93
52656;SHT85;35474;51.032;6.998;2023-01-29T08:33:42;-2.18;85.92
52656;SHT85;35474;51.032;6.998;2023-01-29T08:36:09;-2.22;85.87
52656;SHT85;35474;51.032;6.998;2023-01-29T08:38:35;-2.06;85.77
52656;SHT85;35474;51.032;6.998;2023-01-29T08:41:02;-2.11;85.85
52656;SHT85;35474;51.032;6.998;2023-01-29T08:43:30;-1.97;85.71
52656;SHT85;35474;51.032;6.998;2023-01-29T08:45:56;-2.05;85.73
52656;SHT85;35474;51.032;6.998;2023-01-29T08:48:23;-2.06;85.83
52656;SHT85;35474;51.032;6.998;2023-01-29T08:50:50;-1.97;86.02
52656;SHT85;35474;51.032;6.998;2023-01-29T08:53:16;-1.97;85.68
52656;SHT85;35474;51.032;6.998;2023-01-29T08:55:44;-1.99;85.44
52656;SHT85;35474;51.032;6.998;2023-01-29T08:58:11;-1.83;85.48
52656;SHT85;35474;51.032;6.998;2023-01-29T09:00:37;-1.78;85.37
52656;SHT85;35474;51.032;6.998;2023-01-29T09:03:04;-1.79;85.07
52656;SHT85;35474;51.032;6.998;2023-01-29T09:05:33;-1.81;84.94
52656;SHT85;35474;51.032;6.998;2023-01-29T09:08:00;-1.83;85.15
52656;SHT85;35474;51.032;6.998;2023-01-29T09:10:27;-1.72;85.12
52656;SHT85;35474;51.032;6.998;2023-01-29T09:12:53;-1.75;84.87
52656;SHT85;35474;51.032;6.998;2023-01-29T09:15:20;-1.66;85.06
52656;SHT85;35474;51.032;6.998;2023-01-29T09:17:46;-1.71;85.02
52656;SHT85;35474;51.032;6.998;2023-01-29T09:20:15;-1.71;85.50
52656;SHT85;35474;51.032;6.998;2023-01-29T09:22:42;-1.40;84.79
52656;SHT85;35474;51.032;6.998;2023-01-29T09:25:09;-1.55;84.82
52656;SHT85;35474;51.032;6.998;2023-01-29T09:27:37;-1.51;84.79
52656;SHT85;35474;51.032;6.998;2023-01-29T09:30:04;-1.50;84.99
52656;SHT85;35474;51.032;6.998;2023-01-29T09:32:32;-1.41;84.88
52656;SHT85;35474;51.032;6.998;2023-01-29T09:35:19;-1.34;84.59
52656;SHT85;35474;51.032;6.998;2023-01-29T09:37:47;-1.31;84.80
52656;SHT85;35474;51.032;6.998;2023-01-29T09:40:17;-1.21;84.34
52656;SHT85;35474;51.032;6.998;2023-01-29T09:43:37;-1.44;84.75
52656;SHT85;35474;51.032;6.998;2023-01-29T09:46:04;-1.31;84.62
52656;SHT85;35474;51.032;6.998;2023-01-29T09:48:38;-1.24;85.02
52656;SHT85;35474;51.032;6.998;2023-01-29T09:51:09;-1.34;84.94
52656;SHT85;35474;51.032;6.998;2023-01-29T09:53:54;-1.21;85.03
52656;SHT85;35474;51.032;6.998;2023-01-29T09:56:32;-1.13;84.89
52656;SHT85;35474;51.032;6.998;2023-01-29T09:58:58;-1.01;84.82
52656;SHT85;35474;51.032;6.998;2023-01-29T10:01:39;-1.08;83.94
52656;SHT85;35474;51.032;6.998;2023-01-29T10:04:24;-0.82;83.74
52656;SHT85;35474;51.032;6.998;2023-01-29T10:09:59;-0.77;83.36
52656;SHT85;35474;51.032;6.998;2023-01-29T10:12:50;-0.82;83.12
52656;SHT85;35474;51.032;6.998;2023-01-29T10:26:43;-0.32;81.70
52656;SHT85;35474;51.032;6.998;2023-01-29T10:29:11;-0.14;81.25
52656;SHT85;35474;51.032;6.998;2023-01-29T10:31:43;-0.24;81.46
52656;SHT85;35474;51.032;6.998;2023-01-29T10:36:50;-0.21;80.98
52656;SHT85;35474;51.032;6.998;2023-01-29T10:39:20;-0.35;80.86
52656;SHT85;35474;51.032;6.998;2023-01-29T10:57:54;-0.07;79.77
52656;SHT85;35474;51.032;6.998;2023-01-29T11:00:37;-0.11;79.79
52656;SHT85;35474;51.032;6.998;2023-01-29T11:03:16;0.10;79.67
52656;SHT85;35474;51.032;6.998;2023-01-29T11:12:03;0.09;78.95
52656;SHT85;35474;51.032;6.998;2023-01-29T11:17:22;-0.04;78.71
52656;SHT85;35474;51.032;6.998;2023-01-29T11:19:51;-0.01;79.04
52656;SHT85;35474;51.032;6.998;2023-01-29T11:22:23;0.07;78.99
52656;SHT85;35474;51.032;6.998;2023-01-29T11:27:45;0.23;78.88
52656;SHT85;35474;51.032;6.998;2023-01-29T11:30:25;0.33;78.62
52656;SHT85;35474;51.032;6.998;2023-01-29T11:33:08;0.31;78.67
52656;SHT85;35474;51.032;6.998;2023-01-29T11:35:35;0.28;78.56
52656;SHT85;35474;51.032;6.998;2023-01-29T11:40:41;0.41;78.22
52656;SHT85;35474;51.032;6.998;2023-01-29T11:43:12;0.60;77.98
52656;SHT85;35474;51.032;6.998;2023-01-29T11:45:44;0.62;77.73
52656;SHT85;35474;51.032;6.998;2023-01-29T11:48:19;0.36;78.34
52656;SHT85;35474;51.032;6.998;2023-01-29T11:50:50;0.71;78.00
52656;SHT85;35474;51.032;6.998;2023-01-29T11:53:22;0.54;78.08
52656;SHT85;35474;51.032;6.998;2023-01-29T11:55:50;0.58;78.42
52656;SHT85;35474;51.032;6.998;2023-01-29T11:58:18;0.54;78.29
52656;SHT85;35474;51.032;6.998;2023-01-29T12:00:51;0.55;78.32
52656;SHT85;35474;51.032;6.998;2023-01-29T12:03:21;0.54;78.38
52656;SHT85;35474;51.032;6.998;2023-01-29T12:05:57;0.45;78.36
52656;SHT85;35474;51.032;6.998;2023-01-29T12:08:26;0.51;78.63
52656;SHT85;35474;51.032;6.998;2023-01-29T12:11:09;0.69;78.79
52656;SHT85;35474;51.032;6.998;2023-01-29T12:13:53;0.69;78.15
52656;SHT85;35474;51.032;6.998;2023-01-29T12:16:28;0.89;77.79
52656;SHT85;35474;51.032;6.998;2023-01-29T12:19:13;0.92;77.06
52656;SHT85;35474;51.032;6.998;2023-01-29T12:21:57;0.91;77.33
52656;SHT85;35474;51.032;6.998;2023-01-29T12:24:35;0.82;77.46
52656;SHT85;35474;51.032;6.998;2023-01-29T12:27:21;0.92;77.33
52656;SHT85;35474;51.032;6.998;2023-01-29T12:30:14;0.91;77.31
52656;SHT85;35474;51.032;6.998;2023-01-29T12:32:48;1.09;77.25
52656;SHT85;35474;51.032;6.998;2023-01-29T12:35:32;1.15;76.65
52656;SHT85;35474;51.032;6.998;2023-01-29T12:38:06;1.04;76.65
52656;SHT85;35474;51.032;6.998;2023-01-29T12:40:49;1.40;76.31
52656;SHT85;35474;51.032;6.998;2023-01-29T12:43:31;1.07;76.23
52656;SHT85;35474;51.032;6.998;2023-01-29T12:46:05;1.12;76.54
52656;SHT85;35474;51.032;6.998;2023-01-29T12:48:40;1.20;76.67
52656;SHT85;35474;51.032;6.998;2023-01-29T12:51:13;1.36;75.74
52656;SHT85;35474;51.032;6.998;2023-01-29T12:53:45;1.40;76.16
52656;SHT85;35474;51.032;6.998;2023-01-29T12:56:25;1.47;75.55
52656;SHT85;35474;51.032;6.998;2023-01-29T12:58:56;1.60;75.26
52656;SHT85;35474;51.032;6.998;2023-01-29T13:01:33;1.48;75.38
52656;SHT85;35474;51.032;6.998;2023-01-29T13:06:43;1.61;75.27
52656;SHT85;35474;51.032;6.998;2023-01-29T13:09:19;1.55;75.91
52656;SHT85;35474;51.032;6.998;2023-01-29T13:11:55;1.31;75.70
52656;SHT85;35474;51.032;6.998;2023-01-29T13:14:32;1.47;75.95
52656;SHT85;35474;51.032;6.998;2023-01-29T13:19:56;1.26;75.60
52656;SHT85;35474;51.032;6.998;2023-01-29T13:22:26;1.41;75.52
52656;SHT85;35474;51.032;6.998;2023-01-29T13:24:56;1.57;75.21
52656;SHT85;35474;51.032;6.998;2023-01-29T13:27:31;1.51;75.54
52656;SHT85;35474;51.032;6.998;2023-01-29T13:30:00;1.60;75.29
52656;SHT85;35474;51.032;6.998;2023-01-29T13:32:30;1.44;75.43
52656;SHT85;35474;51.032;6.998;2023-01-29T13:35:00;1.48;75.63
52656;SHT85;35474;51.032;6.998;2023-01-29T13:37:34;1.70;75.38
52656;SHT85;35474;51.032;6.998;2023-01-29T13:40:04;1.68;75.06
52656;SHT85;35474;51.032;6.998;2023-01-29T13:42:37;1.88;75.03
52656;SHT85;35474;51.032;6.998;2023-01-29T13:45:16;1.74;74.75
52656;SHT85;35474;51.032;6.998;2023-01-29T13:47:44;1.82;75.07
52656;SHT85;35474;51.032;6.998;2023-01-29T13:53:01;2.03;74.33
52656;SHT85;35474;51.032;6.998;2023-01-29T13:55:30;2.03;74.18
52656;SHT85;35474;51.032;6.998;2023-01-29T13:57:59;2.23;73.74
52656;SHT85;35474;51.032;6.998;2023-01-29T14:07:56;2.22;74.08
52656;SHT85;35474;51.032;6.998;2023-01-29T14:10:25;2.34;73.92
52656;SHT85;35474;51.032;6.998;2023-01-29T14:12:54;2.26;73.95
52656;SHT85;35474;51.032;6.998;2023-01-29T14:15:41;2.22;73.80
52656;SHT85;35474;51.032;6.998;2023-01-29T14:26:29;2.33;74.03
52656;SHT85;35474;51.032;6.998;2023-01-29T14:34:33;2.37;74.19
52656;SHT85;35474;51.032;6.998;2023-01-29T14:37:18;2.23;74.40
52656;SHT85;35474;51.032;6.998;2023-01-29T14:39:56;2.26;74.34
52656;SHT85;35474;51.032;6.998;2023-01-29T14:42:32;2.40;74.21
52656;SHT85;35474;51.032;6.998;2023-01-29T14:45:06;2.56;73.98
52656;SHT85;35474;51.032;6.998;2023-01-29T14:52:57;2.65;73.43
52656;SHT85;35474;51.032;6.998;2023-01-29T14:55:29;2.65;73.32
52656;SHT85;35474;51.032;6.998;2023-01-29T14:58:02;2.64;73.10
52656;SHT85;35474;51.032;6.998;2023-01-29T15:00:30;2.64;73.29
52656;SHT85;35474;51.032;6.998;2023-01-29T15:03:01;2.57;73.43
52656;SHT85;35474;51.032;6.998;2023-01-29T15:05:37;2.64;73.70
52656;SHT85;35474;51.032;6.998;2023-01-29T15:10:52;2.58;73.49
52656;SHT85;35474;51.032;6.998;2023-01-29T15:13:55;2.58;73.71
52656;SHT85;35474;51.032;6.998;2023-01-29T15:16:34;2.78;73.82
52656;SHT85;35474;51.032;6.998;2023-01-29T15:19:11;2.87;73.25
52656;SHT85;35474;51.032;6.998;2023-01-29T15:25:02;2.84;72.52
52656;SHT85;35474;51.032;6.998;2023-01-29T15:27:29;2.87;73.32
52656;SHT85;35474;51.032;6.998;2023-01-29T15:29:57;2.81;73.09
52656;SHT85;35474;51.032;6.998;2023-01-29T15:32:26;2.80;73.07
52656;SHT85;35474;51.032;6.998;2023-01-29T15:34:56;2.85;73.10
52656;SHT85;35474;51.032;6.998;2023-01-29T15:37:28;2.76;73.34
52656;SHT85;35474;51.032;6.998;2023-01-29T15:39:59;2.77;73.15
52656;SHT85;35474;51.032;6.998;2023-01-29T15:42:27;2.85;73.27
52656;SHT85;35474;51.032;6.998;2023-01-29T15:44:55;2.92;72.70
52656;SHT85;35474;51.032;6.998;2023-01-29T15:47:23;3.05;72.90
52656;SHT85;35474;51.032;6.998;2023-01-29T15:49:54;3.13;72.14
52656;SHT85;35474;51.032;6.998;2023-01-29T15:52:23;2.99;72.26
52656;SHT85;35474;51.032;6.998;2023-01-29T15:54:55;2.94;73.10
52656;SHT85;35474;51.032;6.998;2023-01-29T15:57:28;2.76;73.44
52656;SHT85;35474;51.032;6.998;2023-01-29T15:59:59;2.91;73.21
52656;SHT85;35474;51.032;6.998;2023-01-29T16:02:28;3.08;72.98
52656;SHT85;35474;51.032;6.998;2023-01-29T16:05:01;2.90;73.25
52656;SHT85;35474;51.032;6.998;2023-01-29T16:07:30;2.99;73.00
52656;SHT85;35474;51.032;6.998;2023-01-29T16:09:57;3.02;73.18
52656;SHT85;35474;51.032;6.998;2023-01-29T16:12:25;3.13;73.11
52656;SHT85;35474;51.032;6.998;2023-01-29T16:14:52;3.02;73.48
52656;SHT85;35474;51.032;6.998;2023-01-29T16:20:28;3.07;72.98
52656;SHT85;35474;51.032;6.998;2023-01-29T16:23:16;3.09;72.82
52656;SHT85;35474;51.032;6.998;2023-01-29T16:25:45;3.09;72.76
52656;SHT85;35474;51.032;6.998;2023-01-29T16:28:14;3.16;72.79
52656;SHT85;35474;51.032;6.998;2023-01-29T16:30:41;3.15;72.71
52656;SHT85;35474;51.032;6.998;2023-01-29T16:33:10;3.11;72.97
52656;SHT85;35474;51.032;6.998;2023-01-29T16:35:39;3.08;72.87
52656;SHT85;35474;51.032;6.998;2023-01-29T16:38:16;3.11;73.08
52656;SHT85;35474;51.032;6.998;2023-01-29T16:41:05;3.02;73.23
52656;SHT85;35474;51.032;6.998;2023-01-29T16:46:23;2.91;73.64
52656;SHT85;35474;51.032;6.998;2023-01-29T16:51:51;2.92;73.79
52656;SHT85;35474;51.032;6.998;2023-01-29T16:54:25;2.94;73.88
52656;SHT85;35474;51.032;6.998;2023-01-29T16:56:57;2.90;73.99
52656;SHT85;35474;51.032;6.998;2023-01-29T16:59:28;2.87;74.15
52656;SHT85;35474;51.032;6.998;2023-01-29T17:01:58;2.90;74.07
52656;SHT85;35474;51.032;6.998;2023-01-29T17:04:25;2.87;74.11
52656;SHT85;35474;51.032;6.998;2023-01-29T17:06:53;2.76;74.49
52656;SHT85;35474;51.032;6.998;2023-01-29T17:09:23;2.76;74.54
52656;SHT85;35474;51.032;6.998;2023-01-29T17:11:54;2.77;74.68
52656;SHT85;35474;51.032;6.998;2023-01-29T17:14:24;2.77;74.64
52656;SHT85;35474;51.032;6.998;2023-01-29T17:17:00;2.80;74.66
52656;SHT85;35474;51.032;6.998;2023-01-29T17:19:29;2.74;74.59
52656;SHT85;35474;51.032;6.998;2023-01-29T17:21:59;2.78;74.64
52656;SHT85;35474;51.032;6.998;2023-01-29T17:24:29;2.78;74.65
52656;SHT85;35474;51.032;6.998;2023-01-29T17:26:56;2.83;74.69
52656;SHT85;35474;51.032;6.998;2023-01-29T17:29:23;2.78;74.72
52656;SHT85;35474;51.032;6.998;2023-01-29T17:31:53;2.78;74.63
52656;SHT85;35474;51.032;6.998;2023-01-29T17:34:22;2.73;74.88
52656;SHT85;35474;51.032;6.998;2023-01-29T17:36:49;2.74;74.76
52656;SHT85;35474;51.032;6.998;2023-01-29T17:39:16;2.74;74.92
52656;SHT85;35474;51.032;6.998;2023-01-29T17:41:46;2.76;74.87
52656;SHT85;35474;51.032;6.998;2023-01-29T17:44:18;2.84;74.74
52656;SHT85;35474;51.032;6.998;2023-01-29T17:46:45;2.76;74.66
52656;SHT85;35474;51.032;6.998;2023-01-29T17:49:25;2.74;74.47
52656;SHT85;35474;51.032;6.998;2023-01-29T17:51:54;2.81;74.38
52656;SHT85;35474;51.032;6.998;2023-01-29T17:54:22;2.76;74.25
52656;SHT85;35474;51.032;6.998;2023-01-29T17:56:49;2.76;74.67
52656;SHT85;35474;51.032;6.998;2023-01-29T17:59:17;2.81;74.33
52656;SHT85;35474;51.032;6.998;2023-01-29T18:01:51;2.73;74.36
52656;SHT85;35474;51.032;6.998;2023-01-29T18:04:18;2.78;74.26
52656;SHT85;35474;51.032;6.998;2023-01-29T18:06:47;2.80;74.16
52656;SHT85;35474;51.032;6.998;2023-01-29T18:09:16;2.80;74.05
52656;SHT85;35474;51.032;6.998;2023-01-29T18:11:48;2.84;73.93
52656;SHT85;35474;51.032;6.998;2023-01-29T18:14:15;2.90;74.04
52656;SHT85;35474;51.032;6.998;2023-01-29T18:16:45;2.80;73.90
52656;SHT85;35474;51.032;6.998;2023-01-29T18:19:22;2.81;74.27
52656;SHT85;35474;51.032;6.998;2023-01-29T18:21:52;2.83;74.48
52656;SHT85;35474;51.032;6.998;2023-01-29T18:24:20;2.73;74.69
52656;SHT85;35474;51.032;6.998;2023-01-29T18:26:47;2.74;74.47
52656;SHT85;35474;51.032;6.998;2023-01-29T18:29:14;2.80;74.60
52656;SHT85;35474;51.032;6.998;2023-01-29T18:31:41;2.77;74.85
52656;SHT85;35474;51.032;6.998;2023-01-29T18:34:08;2.71;74.91
52656;SHT85;35474;51.032;6.998;2023-01-29T18:36:34;2.68;74.94